createdAt,value
2022-11-27T00:01:35.609Z,13.85
2022-11-27T00:04:02.435Z,12.32
2022-11-27T00:06:30.241Z,12.05
2022-11-27T00:09:00.761Z,8.32
2022-11-27T00:11:54.461Z,13.10
2022-11-27T00:14:21.150Z,9.82
2022-11-27T00:16:47.827Z,15.32
2022-11-27T00:19:14.597Z,13.68
2022-11-27T00:21:41.403Z,12.25
2022-11-27T00:24:09.165Z,15.30
2022-11-27T00:26:38.139Z,12.50
2022-11-27T00:29:08.942Z,11.55
2022-11-27T00:31:37.489Z,11.85
2022-11-27T00:34:08.607Z,12.73
2022-11-27T00:36:36.488Z,12.15
2022-11-27T00:39:06.934Z,11.13
2022-11-27T00:41:33.767Z,13.82
2022-11-27T00:44:00.473Z,10.05
2022-11-27T00:46:29.838Z,7.80
2022-11-27T00:48:58.435Z,10.57
2022-11-27T00:51:29.017Z,11.05
2022-11-27T00:53:58.690Z,11.55
2022-11-27T00:56:30.900Z,9.00
2022-11-27T00:58:58.125Z,7.30
2022-11-27T01:01:30.095Z,8.15
2022-11-27T01:03:58.721Z,12.38
2022-11-27T01:06:48.914Z,11.00
2022-11-27T01:09:18.743Z,14.38
2022-11-27T01:11:47.840Z,11.85
2022-11-27T01:14:17.299Z,10.95
2022-11-27T01:16:44.503Z,8.85
2022-11-27T01:19:16.558Z,8.15
2022-11-27T01:21:49.076Z,10.00
2022-11-27T01:24:18.846Z,9.68
2022-11-27T01:26:46.213Z,9.20
2022-11-27T01:29:15.124Z,6.80
2022-11-27T01:31:41.999Z,9.32
2022-11-27T01:34:14.594Z,10.77
2022-11-27T01:36:44.012Z,11.50
2022-11-27T01:39:19.100Z,8.93
2022-11-27T01:41:47.022Z,13.25
2022-11-27T01:44:28.089Z,11.18
2022-11-27T01:46:59.998Z,12.35
2022-11-27T01:49:36.626Z,7.32
2022-11-27T01:52:09.236Z,12.50
2022-11-27T01:54:39.322Z,8.35
2022-11-27T01:57:18.988Z,9.68
2022-11-27T01:59:50.379Z,7.90
2022-11-27T02:02:17.362Z,10.15
2022-11-27T02:04:46.688Z,11.13
2022-11-27T02:07:13.524Z,8.65
2022-11-27T02:09:44.443Z,11.85
2022-11-27T02:12:17.950Z,9.32
2022-11-27T02:14:53.839Z,9.07
2022-11-27T02:17:30.726Z,7.03
2022-11-27T02:20:34.728Z,10.43
2022-11-27T02:23:24.656Z,8.20
2022-11-27T02:26:26.904Z,14.88
2022-11-27T02:28:58.527Z,12.07
2022-11-27T02:31:46.498Z,12.50
2022-11-27T02:34:27.825Z,12.57
2022-11-27T02:37:10.571Z,10.88
2022-11-27T02:39:48.816Z,10.90
2022-11-27T02:42:20.918Z,14.93
2022-11-27T02:45:04.437Z,14.35
2022-11-27T02:47:31.815Z,15.60
2022-11-27T02:50:12.366Z,13.98
2022-11-27T02:52:42.392Z,11.73
2022-11-27T02:55:14.134Z,11.43
2022-11-27T02:57:43.317Z,14.43
2022-11-27T03:00:11.862Z,14.55
2022-11-27T03:02:47.471Z,19.52
2022-11-27T03:05:18.929Z,16.77
2022-11-27T03:07:54.181Z,15.15
2022-11-27T03:10:26.275Z,15.55
2022-11-27T03:12:55.234Z,15.30
2022-11-27T03:15:24.118Z,16.58
2022-11-27T03:18:00.531Z,19.13
2022-11-27T03:20:31.863Z,18.80
2022-11-27T03:22:58.977Z,18.83
2022-11-27T03:25:25.763Z,18.83
2022-11-27T03:28:13.765Z,15.23
2022-11-27T03:30:41.633Z,21.40
2022-11-27T03:33:08.594Z,23.58
2022-11-27T03:35:35.280Z,19.80
2022-11-27T03:38:04.402Z,18.25
2022-11-27T03:40:45.903Z,20.77
2022-11-27T03:43:23.889Z,19.67
2022-11-27T03:46:16.414Z,19.17
2022-11-27T03:49:02.710Z,21.08
2022-11-27T03:51:43.346Z,19.98
2022-11-27T03:54:30.294Z,25.25
2022-11-27T03:57:07.296Z,21.48
2022-11-27T03:59:39.048Z,21.13
2022-11-27T04:02:05.868Z,21.00
2022-11-27T04:04:32.639Z,20.38
2022-11-27T04:06:59.413Z,19.70
2022-11-27T04:09:26.056Z,19.95
2022-11-27T04:11:52.764Z,18.77
2022-11-27T04:14:19.484Z,20.13
2022-11-27T04:16:46.174Z,23.45
2022-11-27T04:19:12.855Z,23.70
2022-11-27T04:21:39.501Z,16.17
2022-11-27T04:24:08.744Z,19.45
2022-11-27T04:26:35.405Z,21.67
2022-11-27T04:29:02.042Z,18.73
2022-11-27T04:31:28.749Z,17.80
2022-11-27T04:33:55.528Z,18.52
2022-11-27T04:36:24.422Z,18.92
2022-11-27T04:38:53.357Z,17.75
2022-11-27T04:41:20.074Z,15.75
2022-11-27T04:43:46.745Z,19.58
2022-11-27T04:46:13.450Z,17.02
2022-11-27T04:48:42.498Z,21.02
2022-11-27T04:51:09.310Z,18.02
2022-11-27T04:53:36.124Z,19.60
2022-11-27T04:56:02.984Z,19.92
2022-11-27T04:58:29.731Z,17.38
2022-11-27T05:00:56.471Z,17.55
2022-11-27T05:03:23.281Z,20.92
2022-11-27T05:05:57.405Z,21.30
2022-11-27T05:08:27.481Z,22.42
2022-11-27T05:11:10.622Z,16.60
2022-11-27T05:13:37.636Z,15.80
2022-11-27T05:16:05.062Z,15.75
2022-11-27T05:18:34.666Z,13.60
2022-11-27T05:21:03.991Z,14.77
2022-11-27T05:23:34.879Z,14.27
2022-11-27T05:26:03.352Z,23.40
2022-11-27T05:28:30.015Z,17.33
2022-11-27T05:30:56.765Z,19.70
2022-11-27T05:33:23.472Z,18.88
2022-11-27T05:35:50.149Z,18.02
2022-11-27T05:38:16.808Z,14.40
2022-11-27T05:40:49.419Z,11.32
2022-11-27T05:43:18.559Z,12.15
2022-11-27T05:45:45.282Z,14.88
2022-11-27T05:48:11.916Z,14.10
2022-11-27T05:50:38.701Z,12.13
2022-11-27T05:53:05.331Z,14.45
2022-11-27T05:55:32.318Z,15.30
2022-11-27T05:57:59.006Z,14.00
2022-11-27T06:00:28.265Z,10.88
2022-11-27T06:02:58.169Z,13.68
2022-11-27T06:05:27.062Z,13.77
2022-11-27T06:07:53.761Z,14.70
2022-11-27T06:10:22.689Z,9.73
2022-11-27T06:12:52.355Z,12.68
2022-11-27T06:15:19.039Z,14.10
2022-11-27T06:17:45.795Z,12.18
2022-11-27T06:20:12.895Z,6.35
2022-11-27T06:22:39.571Z,11.57
2022-11-27T06:25:06.531Z,13.07
2022-11-27T06:27:36.614Z,10.50
2022-11-27T06:30:09.304Z,11.98
2022-11-27T06:32:36.034Z,10.75
2022-11-27T06:35:05.390Z,10.57
2022-11-27T06:37:32.055Z,11.05
2022-11-27T06:39:58.798Z,12.77
2022-11-27T06:42:25.506Z,12.35
2022-11-27T06:44:52.146Z,10.65
2022-11-27T06:47:21.043Z,11.60
2022-11-27T06:49:50.189Z,10.30
2022-11-27T06:52:16.875Z,10.23
2022-11-27T06:54:43.532Z,10.15
2022-11-27T06:57:14.466Z,12.50
2022-11-27T06:59:41.261Z,10.73
2022-11-27T07:02:14.172Z,10.30
2022-11-27T07:04:41.159Z,12.00
2022-11-27T07:07:10.193Z,9.88
2022-11-27T07:09:41.568Z,11.15
2022-11-27T07:12:08.772Z,9.60
2022-11-27T07:14:35.445Z,11.90
2022-11-27T07:17:02.192Z,10.55
2022-11-27T07:19:28.847Z,8.10
2022-11-27T07:21:55.603Z,11.45
2022-11-27T07:24:22.394Z,10.90
2022-11-27T07:26:49.071Z,8.85
2022-11-27T07:29:15.776Z,11.95
2022-11-27T07:31:44.635Z,6.32
2022-11-27T07:34:18.400Z,8.40
2022-11-27T07:36:50.627Z,9.90
2022-11-27T07:39:34.070Z,8.90
2022-11-27T07:42:36.901Z,8.73
2022-11-27T07:44:55.977Z,9.05
2022-11-27T07:47:25.162Z,9.38
2022-11-27T07:49:51.956Z,10.00
2022-11-27T07:52:18.643Z,8.05
2022-11-27T07:54:47.502Z,8.05
2022-11-27T07:57:18.840Z,9.07
2022-11-27T07:59:48.224Z,8.18
2022-11-27T08:02:17.392Z,7.85
2022-11-27T08:04:44.573Z,8.05
2022-11-27T08:07:13.740Z,12.35
2022-11-27T08:09:40.643Z,9.40
2022-11-27T08:12:09.916Z,9.50
2022-11-27T08:14:36.710Z,9.48
2022-11-27T08:17:03.425Z,8.98
2022-11-27T08:19:32.689Z,11.38
2022-11-27T08:21:59.440Z,11.50
2022-11-27T08:24:26.218Z,11.23
2022-11-27T08:26:55.094Z,11.05
2022-11-27T08:29:24.289Z,12.77
2022-11-27T08:31:55.655Z,9.32
2022-11-27T08:34:22.425Z,11.63
2022-11-27T08:36:49.068Z,8.38
2022-11-27T08:39:15.739Z,11.80
2022-11-27T08:41:42.441Z,12.50
2022-11-27T08:44:11.579Z,13.38
2022-11-27T08:46:38.463Z,8.98
2022-11-27T08:49:05.141Z,13.02
2022-11-27T08:51:31.860Z,8.25
2022-11-27T08:53:58.497Z,8.13
2022-11-27T08:56:26.045Z,9.27
2022-11-27T08:58:53.448Z,9.40
2022-11-27T09:01:23.131Z,10.27
2022-11-27T09:03:50.048Z,9.85
2022-11-27T09:06:21.256Z,11.00
2022-11-27T09:08:48.777Z,9.55
2022-11-27T09:11:20.243Z,7.55
2022-11-27T09:13:47.273Z,8.88
2022-11-27T09:16:17.499Z,8.63
2022-11-27T09:18:46.356Z,10.15
2022-11-27T09:21:14.795Z,11.70
2022-11-27T09:23:44.439Z,8.55
2022-11-27T09:26:16.073Z,10.90
2022-11-27T09:28:43.645Z,9.68
2022-11-27T09:31:13.154Z,12.23
2022-11-27T09:33:41.304Z,11.38
2022-11-27T09:36:20.155Z,11.35
2022-11-27T09:38:47.111Z,10.82
2022-11-27T09:41:39.349Z,10.70
2022-11-27T09:44:12.259Z,9.65
2022-11-27T09:46:41.206Z,11.50
2022-11-27T09:49:23.014Z,14.07
2022-11-27T09:52:02.186Z,10.30
2022-11-27T09:54:32.720Z,12.40
2022-11-27T09:57:02.511Z,9.07
2022-11-27T10:00:13.199Z,12.38
2022-11-27T10:02:44.998Z,13.13
2022-11-27T10:05:22.362Z,10.60
2022-11-27T10:08:43.932Z,10.13
2022-11-27T10:11:28.165Z,12.40
2022-11-27T10:14:18.991Z,13.25
2022-11-27T10:16:54.909Z,12.23
2022-11-27T10:19:47.692Z,12.07
2022-11-27T10:22:47.824Z,13.63
2022-11-27T10:25:21.551Z,12.18
2022-11-27T10:28:26.467Z,10.88
2022-11-27T10:31:00.711Z,13.55
2022-11-27T10:33:49.268Z,11.27
2022-11-27T10:36:22.010Z,15.02
2022-11-27T10:38:49.244Z,12.50
2022-11-27T10:44:30.372Z,11.88
2022-11-27T10:47:06.933Z,10.52
2022-11-27T10:49:37.738Z,11.32
2022-11-27T10:52:04.520Z,11.82
2022-11-27T10:54:39.698Z,13.68
2022-11-27T10:57:30.656Z,10.50
2022-11-27T11:00:09.510Z,12.88
2022-11-27T11:02:38.855Z,9.05
2022-11-27T11:05:45.557Z,12.77
2022-11-27T11:08:20.282Z,10.20
2022-11-27T11:10:54.776Z,8.98
2022-11-27T11:13:52.260Z,7.82
2022-11-27T11:16:24.562Z,10.75
2022-11-27T11:18:57.834Z,11.40
2022-11-27T11:21:29.342Z,9.43
2022-11-27T11:23:56.009Z,12.52
2022-11-27T11:26:29.768Z,10.70
2022-11-27T11:29:01.943Z,12.18
2022-11-27T11:31:33.429Z,9.43
2022-11-27T11:34:03.862Z,8.85
2022-11-27T11:36:31.015Z,10.27
2022-11-27T11:39:02.386Z,11.30
2022-11-27T11:41:45.886Z,7.68
2022-11-27T11:44:25.823Z,10.60
2022-11-27T11:46:54.271Z,8.95
2022-11-27T11:49:26.385Z,7.63
2022-11-27T11:52:25.171Z,10.63
2022-11-27T11:55:20.345Z,9.27
2022-11-27T11:58:10.444Z,9.20
2022-11-27T12:01:11.916Z,8.55
2022-11-27T12:03:34.332Z,9.65
2022-11-27T12:06:09.955Z,9.85
2022-11-27T12:11:18.298Z,7.22
2022-11-27T12:14:12.473Z,8.20
2022-11-27T12:16:39.719Z,8.65
2022-11-27T12:19:41.632Z,9.40
2022-11-27T12:22:26.478Z,7.35
2022-11-27T12:25:17.701Z,7.28
2022-11-27T12:27:50.314Z,5.97
2022-11-27T12:30:22.841Z,8.75
2022-11-27T12:33:16.466Z,7.90
2022-11-27T12:35:59.570Z,7.72
2022-11-27T12:38:58.658Z,7.03
2022-11-27T12:41:34.281Z,8.60
2022-11-27T12:46:54.152Z,11.32
2022-11-27T12:49:24.682Z,9.23
2022-11-27T12:52:21.190Z,9.43
2022-11-27T12:57:39.360Z,7.32
2022-11-27T13:00:39.120Z,9.82
2022-11-27T13:03:24.701Z,8.20
2022-11-27T13:06:02.856Z,7.45
2022-11-27T13:08:47.232Z,7.53
2022-11-27T13:11:22.468Z,9.40
2022-11-27T13:13:49.210Z,6.13
2022-11-27T13:16:28.283Z,7.25
2022-11-27T13:19:01.437Z,6.72
2022-11-27T13:21:33.574Z,7.65
2022-11-27T13:24:01.583Z,6.82
2022-11-27T13:26:45.383Z,8.15
2022-11-27T13:29:30.253Z,6.53
2022-11-27T13:32:01.714Z,9.48
2022-11-27T13:34:36.704Z,4.97
2022-11-27T13:37:07.219Z,7.53
2022-11-27T13:39:40.664Z,6.15
2022-11-27T13:42:21.141Z,5.15
2022-11-27T13:45:07.336Z,9.45
2022-11-27T13:47:43.566Z,7.10
2022-11-27T13:50:13.472Z,7.50
2022-11-27T13:53:04.628Z,5.53
2022-11-27T13:55:38.509Z,7.90
2022-11-27T13:58:06.808Z,7.47
2022-11-27T14:00:38.204Z,6.38
2022-11-27T14:03:06.685Z,6.78
2022-11-27T14:05:39.228Z,7.70
2022-11-27T14:08:21.701Z,9.00
2022-11-27T14:11:02.724Z,6.00
2022-11-27T14:13:36.673Z,7.05
2022-11-27T14:16:09.261Z,7.85
2022-11-27T14:18:38.301Z,4.90
2022-11-27T14:21:05.194Z,6.45
2022-11-27T14:23:48.059Z,6.95
2022-11-27T14:26:16.851Z,6.07
2022-11-27T14:28:48.358Z,5.28
2022-11-27T14:31:31.893Z,6.68
2022-11-27T14:34:20.796Z,7.22
2022-11-27T14:36:52.746Z,9.02
2022-11-27T14:39:29.499Z,7.32
2022-11-27T14:42:07.855Z,7.03
2022-11-27T14:44:37.297Z,8.13
2022-11-27T14:47:06.727Z,8.20
2022-11-27T14:49:34.026Z,8.20
2022-11-27T14:52:05.328Z,6.78
2022-11-27T14:54:36.794Z,9.73
2022-11-27T14:57:05.120Z,12.32
2022-11-27T14:59:32.200Z,6.30
2022-11-27T15:02:11.121Z,6.85
2022-11-27T15:04:42.906Z,10.02
2022-11-27T15:07:21.373Z,9.23
2022-11-27T15:09:53.306Z,6.65
2022-11-27T15:12:35.896Z,9.45
2022-11-27T15:15:14.077Z,10.20
2022-11-27T15:17:45.171Z,11.82
2022-11-27T15:20:15.979Z,9.90
2022-11-27T15:22:57.202Z,9.70
2022-11-27T15:25:34.723Z,10.60
2022-11-27T15:28:01.747Z,11.45
2022-11-27T15:30:28.743Z,9.43
2022-11-27T15:32:57.917Z,8.77
2022-11-27T15:35:29.897Z,8.85
2022-11-27T15:38:04.264Z,11.43
2022-11-27T15:40:41.465Z,7.68
2022-11-27T15:43:16.113Z,6.65
2022-11-27T15:45:44.508Z,8.77
2022-11-27T15:48:20.583Z,9.88
2022-11-27T15:50:51.859Z,10.57
2022-11-27T15:53:18.930Z,8.80
2022-11-27T15:55:45.852Z,8.90
2022-11-27T15:58:12.612Z,8.63
2022-11-27T16:00:40.509Z,6.80
2022-11-27T16:03:07.323Z,12.55
2022-11-27T16:05:34.044Z,15.18
2022-11-27T16:08:00.828Z,10.70
2022-11-27T16:10:27.638Z,11.85
2022-11-27T16:12:55.405Z,11.18
2022-11-27T16:15:23.479Z,8.60
2022-11-27T16:17:52.872Z,11.48
2022-11-27T16:20:19.609Z,11.13
2022-11-27T16:22:46.356Z,12.52
2022-11-27T16:25:13.080Z,7.38
2022-11-27T16:27:39.928Z,9.93
2022-11-27T16:30:07.545Z,11.13
2022-11-27T16:32:38.920Z,9.05
2022-11-27T16:35:06.933Z,10.45
2022-11-27T16:37:33.679Z,10.70
2022-11-27T16:40:00.415Z,12.48
2022-11-27T16:42:27.506Z,10.60
2022-11-27T16:44:55.227Z,8.65
2022-11-27T16:47:30.533Z,8.77
2022-11-27T16:50:00.173Z,11.85
2022-11-27T16:52:26.874Z,8.55
2022-11-27T16:54:55.401Z,9.95
2022-11-27T16:57:22.110Z,8.75
2022-11-27T16:59:50.788Z,9.40
2022-11-27T17:02:17.726Z,9.40
2022-11-27T17:04:45.081Z,9.93
2022-11-27T17:07:11.822Z,10.82
2022-11-27T17:09:38.931Z,10.88
2022-11-27T17:12:06.051Z,10.75
2022-11-27T17:14:32.865Z,10.75
2022-11-27T17:16:59.643Z,12.57
2022-11-27T17:19:29.844Z,10.80
2022-11-27T17:21:56.619Z,9.27
2022-11-27T17:24:25.788Z,11.57
2022-11-27T17:26:55.403Z,11.80
2022-11-27T17:29:24.702Z,9.70
2022-11-27T17:31:51.595Z,11.40
2022-11-27T17:34:18.519Z,10.15
2022-11-27T17:36:45.959Z,11.05
2022-11-27T17:39:14.862Z,13.52
2022-11-27T17:41:44.089Z,11.43
2022-11-27T17:44:11.186Z,12.23
2022-11-27T17:46:39.932Z,8.50
2022-11-27T17:49:08.016Z,11.95
2022-11-27T17:51:37.918Z,11.43
2022-11-27T17:54:05.925Z,11.27
2022-11-27T17:56:34.249Z,10.38
2022-11-27T17:59:01.156Z,10.27
2022-11-27T18:01:29.283Z,11.13
2022-11-27T18:03:59.787Z,11.93
2022-11-27T18:06:27.213Z,9.82
2022-11-27T18:08:56.115Z,9.90
2022-11-27T18:11:25.208Z,10.23
2022-11-27T18:13:51.931Z,14.95
2022-11-27T18:16:24.834Z,13.13
2022-11-27T18:18:51.718Z,12.55
2022-11-27T18:21:22.931Z,11.02
2022-11-27T18:29:27.846Z,9.93
2022-11-27T18:31:54.939Z,10.43
2022-11-27T18:34:21.917Z,11.18
2022-11-27T18:36:48.770Z,12.32
2022-11-27T18:39:15.712Z,11.18
2022-11-27T18:41:43.979Z,13.00
2022-11-27T18:44:10.944Z,11.50
2022-11-27T18:46:38.020Z,12.25
2022-11-27T18:49:04.938Z,12.93
2022-11-27T18:51:32.666Z,14.07
2022-11-27T18:53:59.582Z,12.98
2022-11-27T18:56:33.306Z,11.98
2022-11-27T18:59:07.447Z,11.27
2022-11-27T19:01:42.087Z,15.68
2022-11-27T19:04:15.095Z,11.85
2022-11-27T19:06:45.419Z,10.52
2022-11-27T19:09:13.867Z,13.48
2022-11-27T19:11:46.135Z,11.02
2022-11-27T19:14:13.307Z,11.27
2022-11-27T19:16:46.194Z,13.20
2022-11-27T19:22:06.784Z,10.73
2022-11-27T19:24:33.951Z,12.75
2022-11-27T19:27:03.578Z,11.77
2022-11-27T19:29:32.845Z,11.35
2022-11-27T19:32:03.978Z,10.50
2022-11-27T19:34:33.022Z,11.77
2022-11-27T19:36:59.839Z,12.40
2022-11-27T19:39:28.828Z,12.65
2022-11-27T19:41:58.013Z,15.93
2022-11-27T19:44:24.899Z,10.43
2022-11-27T19:46:52.175Z,11.30
2022-11-27T19:49:29.148Z,13.15
2022-11-27T19:51:56.256Z,10.50
2022-11-27T19:54:23.607Z,11.52
2022-11-27T19:56:51.182Z,10.65
2022-11-27T19:59:22.762Z,9.95
2022-11-27T20:01:52.262Z,13.10
2022-11-27T20:04:18.945Z,12.30
2022-11-27T20:06:53.515Z,11.65
2022-11-27T20:09:20.496Z,10.70
2022-11-27T20:11:49.260Z,11.25
2022-11-27T20:14:19.362Z,13.25
2022-11-27T20:16:50.659Z,13.13
2022-11-27T20:19:20.346Z,11.48
2022-11-27T20:21:48.418Z,11.88
2022-11-27T20:24:15.689Z,15.13
2022-11-27T20:26:43.369Z,12.57
2022-11-27T20:29:18.962Z,12.88
2022-11-27T20:31:47.119Z,14.23
2022-11-27T20:34:19.519Z,14.63
2022-11-27T20:36:52.983Z,15.35
2022-11-27T20:39:21.959Z,26.75
2022-11-27T20:41:50.188Z,13.10
2022-11-27T20:44:19.909Z,14.52
2022-11-27T20:46:47.028Z,11.38
2022-11-27T20:49:13.957Z,12.77
2022-11-27T20:51:48.673Z,15.15
2022-11-27T20:54:16.527Z,11.65
2022-11-27T20:56:49.574Z,11.57
2022-11-27T20:59:16.447Z,12.88
2022-11-27T21:01:43.318Z,14.20
2022-11-27T21:04:25.546Z,12.68
2022-11-27T21:06:56.987Z,13.57
2022-11-27T21:09:26.956Z,14.73
2022-11-27T21:11:54.229Z,12.15
2022-11-27T21:14:23.057Z,11.77
2022-11-27T21:16:50.471Z,11.70
2022-11-27T21:19:20.022Z,12.93
2022-11-27T21:21:47.419Z,11.98
2022-11-27T21:24:14.222Z,13.13
2022-11-27T21:26:43.644Z,12.48
2022-11-27T21:29:12.423Z,10.65
2022-11-27T21:31:45.154Z,10.43
2022-11-27T21:34:16.316Z,14.50
2022-11-27T21:36:45.321Z,13.18
2022-11-27T21:39:14.354Z,14.20
2022-11-27T21:41:41.075Z,12.68
2022-11-27T21:44:07.789Z,13.65
2022-11-27T21:46:37.570Z,10.00
2022-11-27T21:49:04.587Z,12.05
2022-11-27T21:51:31.580Z,12.32
2022-11-27T21:53:59.410Z,13.68
2022-11-27T21:56:29.861Z,12.25
2022-11-27T21:58:56.557Z,12.65
2022-11-27T22:01:30.715Z,10.80
2022-11-27T22:03:57.882Z,13.50
2022-11-27T22:06:31.401Z,14.13
2022-11-27T22:08:59.345Z,11.07
2022-11-27T22:11:31.103Z,13.20
2022-11-27T22:14:00.032Z,12.43
2022-11-27T22:16:30.451Z,11.88
2022-11-27T22:19:01.468Z,10.52
2022-11-27T22:21:30.111Z,12.02
2022-11-27T22:23:58.059Z,12.27
2022-11-27T22:26:25.273Z,11.38
2022-11-27T22:28:57.005Z,8.68
2022-11-27T22:31:35.478Z,12.77
2022-11-27T22:34:02.150Z,10.57
2022-11-27T22:36:31.755Z,12.27
2022-11-27T22:39:04.974Z,9.88
2022-11-27T22:41:34.540Z,11.93
2022-11-27T22:44:13.069Z,12.43
2022-11-27T22:46:41.148Z,14.43
2022-11-27T22:49:09.714Z,13.13
2022-11-27T22:51:37.181Z,11.25
2022-11-27T22:54:09.879Z,9.93
2022-11-27T22:56:36.743Z,10.90
2022-11-27T23:01:55.622Z,12.27
2022-11-27T23:04:22.434Z,11.13
2022-11-27T23:06:51.441Z,11.27
2022-11-27T23:09:19.006Z,12.82
2022-11-27T23:11:46.535Z,14.82
2022-11-27T23:14:13.402Z,10.52
2022-11-27T23:16:40.266Z,12.07
2022-11-27T23:19:07.094Z,12.38
2022-11-27T23:21:37.393Z,15.30
2022-11-27T23:24:15.143Z,12.73
2022-11-27T23:26:42.834Z,12.75
2022-11-27T23:29:10.357Z,12.25
2022-11-27T23:31:37.271Z,14.68
2022-11-27T23:34:09.670Z,10.40
2022-11-27T23:36:37.090Z,12.35
2022-11-27T23:39:06.629Z,13.10
2022-11-27T23:41:36.034Z,10.55
2022-11-27T23:44:02.908Z,13.57
2022-11-27T23:46:30.661Z,11.70
2022-11-27T23:49:01.049Z,12.75
2022-11-27T23:51:32.740Z,10.70
2022-11-27T23:54:02.620Z,10.98
2022-11-27T23:56:31.980Z,12.25
2022-11-27T23:58:59.386Z,15.63
